createdAt,value
2022-10-11T00:01:20.373Z,14.35
2022-10-11T00:03:46.953Z,14.46
2022-10-11T00:06:13.561Z,14.76
2022-10-11T00:08:40.071Z,14.77
2022-10-11T00:11:08.193Z,14.27
2022-10-11T00:13:34.973Z,14.34
2022-10-11T00:16:07.905Z,14.54
2022-10-11T00:18:34.560Z,14.49
2022-10-11T00:21:06.708Z,14.22
2022-10-11T00:23:33.965Z,14.07
2022-10-11T00:26:03.056Z,14.26
2022-10-11T00:28:30.256Z,14.21
2022-10-11T00:30:57.151Z,14.13
2022-10-11T00:33:23.813Z,14.02
2022-10-11T00:35:50.686Z,13.95
2022-10-11T00:38:18.042Z,14.21
2022-10-11T00:40:45.416Z,14.15
2022-10-11T00:43:17.308Z,13.83
2022-10-11T00:46:11.581Z,13.86
2022-10-11T00:48:44.564Z,13.92
2022-10-11T00:51:20.027Z,13.49
2022-10-11T00:53:49.065Z,13.83
2022-10-11T00:56:27.483Z,13.75
2022-10-11T00:58:56.004Z,13.91
2022-10-11T01:01:22.665Z,13.56
2022-10-11T01:03:49.283Z,13.70
2022-10-11T01:06:15.839Z,13.70
2022-10-11T01:08:43.168Z,13.74
2022-10-11T01:11:14.531Z,13.71
2022-10-11T01:13:59.594Z,13.59
2022-10-11T01:16:35.859Z,13.48
2022-10-11T01:19:18.841Z,13.48
2022-10-11T01:21:54.835Z,13.48
2022-10-11T01:24:33.614Z,13.59
2022-10-11T01:27:20.651Z,13.68
2022-10-11T01:30:03.685Z,13.45
2022-10-11T01:32:43.167Z,13.31
2022-10-11T01:35:18.327Z,13.18
2022-10-11T01:37:54.222Z,13.09
2022-10-11T01:40:59.144Z,12.98
2022-10-11T01:43:26.850Z,12.95
2022-10-11T01:45:56.149Z,13.02
2022-10-11T01:48:22.653Z,12.98
2022-10-11T01:50:55.437Z,13.06
2022-10-11T01:53:46.957Z,13.07
2022-10-11T01:56:21.389Z,13.12
2022-10-11T01:59:23.157Z,12.75
2022-10-11T02:02:15.660Z,12.60
2022-10-11T02:04:52.255Z,12.66
2022-10-11T02:07:39.989Z,12.85
2022-10-11T02:10:25.207Z,13.02
2022-10-11T02:13:11.435Z,12.85
2022-10-11T02:15:50.150Z,12.88
2022-10-11T02:18:33.041Z,12.76
2022-10-11T02:21:14.813Z,12.51
2022-10-11T02:24:05.672Z,12.45
2022-10-11T02:26:46.103Z,12.37
2022-10-11T02:29:27.638Z,12.37
2022-10-11T02:32:07.263Z,12.07
2022-10-11T02:34:52.174Z,11.98
2022-10-11T02:37:36.415Z,12.00
2022-10-11T02:40:35.637Z,12.25
2022-10-11T02:43:32.847Z,12.15
2022-10-11T02:46:12.406Z,12.08
2022-10-11T02:48:51.153Z,11.92
2022-10-11T02:51:32.125Z,12.04
2022-10-11T02:54:10.387Z,12.06
2022-10-11T02:56:48.532Z,11.74
2022-10-11T02:59:26.719Z,11.55
2022-10-11T03:02:04.978Z,11.89
2022-10-11T03:04:44.000Z,11.88
2022-10-11T03:07:21.685Z,11.96
2022-10-11T03:10:00.594Z,11.91
2022-10-11T03:12:37.822Z,11.68
2022-10-11T03:15:16.139Z,11.79
2022-10-11T03:17:54.755Z,11.80
2022-10-11T03:20:32.496Z,11.52
2022-10-11T03:23:11.168Z,11.31
2022-10-11T03:25:48.968Z,11.33
2022-10-11T03:28:27.179Z,11.18
2022-10-11T03:31:05.490Z,11.25
2022-10-11T03:33:43.576Z,11.08
2022-10-11T03:36:21.831Z,11.25
2022-10-11T03:39:00.756Z,11.42
2022-10-11T03:41:39.234Z,11.41
2022-10-11T03:44:16.462Z,11.59
2022-10-11T03:46:54.644Z,11.37
2022-10-11T03:49:33.061Z,11.58
2022-10-11T03:52:11.498Z,11.34
2022-10-11T03:54:49.242Z,11.27
2022-10-11T03:57:27.534Z,11.31
2022-10-11T04:00:07.059Z,11.12
2022-10-11T04:02:44.000Z,11.00
2022-10-11T04:05:22.164Z,11.22
2022-10-11T04:08:02.512Z,10.92
2022-10-11T04:10:40.621Z,10.84
2022-10-11T04:13:18.455Z,10.85
2022-10-11T04:15:56.654Z,10.74
2022-10-11T04:18:34.782Z,10.93
2022-10-11T04:21:13.693Z,10.70
2022-10-11T04:23:51.238Z,10.57
2022-10-11T04:26:29.647Z,10.43
2022-10-11T04:29:07.745Z,10.40
2022-10-11T04:31:45.905Z,10.70
2022-10-11T04:34:24.233Z,10.80
2022-10-11T04:37:02.316Z,10.66
2022-10-11T04:39:40.656Z,10.73
2022-10-11T04:42:20.064Z,10.52
2022-10-11T04:44:57.062Z,10.35
2022-10-11T04:47:35.524Z,10.22
2022-10-11T04:50:13.434Z,10.48
2022-10-11T04:52:52.295Z,10.25
2022-10-11T04:55:29.858Z,10.25
2022-10-11T04:58:08.134Z,10.24
2022-10-11T05:00:46.525Z,10.48
2022-10-11T05:03:25.445Z,10.23
2022-10-11T05:06:05.941Z,10.40
2022-10-11T05:08:44.182Z,10.47
2022-10-11T05:11:22.360Z,10.32
2022-10-11T05:14:00.554Z,10.77
2022-10-11T05:16:39.585Z,10.62
2022-10-11T05:19:17.097Z,10.64
2022-10-11T05:21:55.362Z,10.46
2022-10-11T05:24:33.503Z,10.44
2022-10-11T05:27:11.631Z,10.06
2022-10-11T05:29:49.908Z,10.06
2022-10-11T05:32:28.292Z,10.00
2022-10-11T05:35:07.041Z,10.16
2022-10-11T05:37:45.047Z,10.17
2022-10-11T05:40:22.793Z,10.25
2022-10-11T05:43:01.036Z,10.64
2022-10-11T05:45:40.537Z,10.31
2022-10-11T05:48:18.991Z,10.26
2022-10-11T05:51:06.417Z,9.92
2022-10-11T05:53:43.449Z,9.96
2022-10-11T05:56:24.404Z,10.25
2022-10-11T05:59:02.545Z,10.35
2022-10-11T06:01:40.305Z,10.21
2022-10-11T06:04:18.976Z,10.14
2022-10-11T06:06:56.193Z,10.19
2022-10-11T06:09:34.860Z,9.98
2022-10-11T06:12:12.566Z,10.00
2022-10-11T06:15:10.182Z,9.96
2022-10-11T06:18:01.964Z,9.75
2022-10-11T06:20:58.351Z,9.81
2022-10-11T06:23:56.885Z,10.33
2022-10-11T06:26:56.916Z,10.46
2022-10-11T06:30:07.438Z,10.77
2022-10-11T06:33:04.976Z,11.24
2022-10-11T06:36:01.806Z,11.36
2022-10-11T06:39:11.748Z,12.38
2022-10-11T06:42:04.384Z,12.38
2022-10-11T06:44:56.299Z,13.00
2022-10-11T06:47:50.899Z,12.89
2022-10-11T06:51:01.593Z,12.75
2022-10-11T06:54:08.449Z,12.99
2022-10-11T06:57:00.384Z,13.39
2022-10-11T06:59:54.893Z,13.26
2022-10-11T07:02:51.481Z,13.19
2022-10-11T07:06:02.415Z,13.69
2022-10-11T07:09:01.133Z,13.77
2022-10-11T07:11:53.045Z,13.64
2022-10-11T07:14:48.432Z,14.35
2022-10-11T07:17:40.703Z,14.14
2022-10-11T07:20:40.715Z,13.84
2022-10-11T07:23:36.101Z,14.03
2022-10-11T07:26:46.337Z,14.33
2022-10-11T07:29:38.317Z,15.24
2022-10-11T07:32:38.510Z,13.81
2022-10-11T07:35:28.937Z,14.70
2022-10-11T07:38:39.267Z,15.54
2022-10-11T07:41:31.295Z,15.16
2022-10-11T07:44:25.795Z,15.59
2022-10-11T07:47:19.996Z,15.67
2022-10-11T07:50:14.259Z,16.72
2022-10-11T07:53:10.102Z,16.32
2022-10-11T07:56:28.360Z,16.60
2022-10-11T07:59:32.995Z,17.07
2022-10-11T08:02:24.301Z,15.67
2022-10-11T08:05:30.506Z,16.21
2022-10-11T08:08:24.398Z,17.19
2022-10-11T08:11:31.280Z,18.62
2022-10-11T08:14:27.886Z,17.48
2022-10-11T08:17:19.377Z,17.51
2022-10-11T08:20:19.701Z,18.51
2022-10-11T08:23:18.418Z,18.25
2022-10-11T08:26:10.221Z,17.69
2022-10-11T08:29:05.040Z,17.68
2022-10-11T08:32:12.283Z,16.96
2022-10-11T08:35:04.145Z,17.06
2022-10-11T08:37:54.941Z,17.09
2022-10-11T08:40:56.257Z,16.53
2022-10-11T08:44:16.202Z,17.39
2022-10-11T08:47:19.419Z,17.57
2022-10-11T08:50:25.637Z,17.31
2022-10-11T08:54:07.191Z,18.84
2022-10-11T08:57:01.637Z,18.56
2022-10-11T08:59:57.685Z,17.60
2022-10-11T09:03:07.568Z,16.89
2022-10-11T09:05:55.846Z,17.88
2022-10-11T09:08:58.522Z,19.73
2022-10-11T09:11:45.152Z,19.06
2022-10-11T09:14:14.759Z,18.34
2022-10-11T09:17:00.658Z,18.80
2022-10-11T09:19:35.638Z,18.19
2022-10-11T09:22:30.975Z,18.58
2022-10-11T09:25:21.659Z,17.90
2022-10-11T09:28:04.243Z,18.65
2022-10-11T09:30:31.946Z,18.48
2022-10-11T09:33:07.878Z,18.96
2022-10-11T09:35:44.262Z,19.21
2022-10-11T09:38:29.622Z,19.57
2022-10-11T09:41:04.607Z,20.96
2022-10-11T09:43:31.291Z,20.84
2022-10-11T09:45:57.995Z,20.02
2022-10-11T09:48:34.151Z,20.06
2022-10-11T09:51:11.151Z,21.22
2022-10-11T09:53:59.270Z,19.90
2022-10-11T09:56:28.932Z,19.56
2022-10-11T09:59:15.358Z,19.98
2022-10-11T10:01:41.946Z,19.15
2022-10-11T10:04:16.911Z,20.81
2022-10-11T10:06:43.619Z,21.78
2022-10-11T10:09:30.369Z,21.27
2022-10-11T10:11:58.039Z,22.36
2022-10-11T10:14:28.264Z,21.10
2022-10-11T10:17:04.429Z,19.92
2022-10-11T10:19:44.471Z,21.23
2022-10-11T10:22:18.942Z,22.55
2022-10-11T10:24:49.042Z,22.10
2022-10-11T10:27:22.963Z,20.31
2022-10-11T10:30:07.223Z,20.22
2022-10-11T10:32:52.105Z,20.39
2022-10-11T10:35:41.027Z,21.02
2022-10-11T10:38:13.434Z,21.55
2022-10-11T10:40:45.355Z,21.11
2022-10-11T10:43:15.651Z,21.74
2022-10-11T10:46:13.014Z,21.68
2022-10-11T10:49:41.220Z,20.25
2022-10-11T10:52:11.025Z,20.47
2022-10-11T10:54:49.849Z,22.37
2022-10-11T10:57:23.239Z,22.85
2022-10-11T11:00:02.861Z,22.10
2022-10-11T11:02:41.916Z,23.11
2022-10-11T11:05:21.158Z,23.25
2022-10-11T11:08:14.321Z,21.51
2022-10-11T11:11:00.731Z,22.26
2022-10-11T11:13:45.189Z,22.46
2022-10-11T11:16:36.080Z,21.82
2022-10-11T11:19:24.029Z,20.96
2022-10-11T11:22:19.849Z,21.02
2022-10-11T11:24:55.496Z,21.02
2022-10-11T11:27:46.930Z,21.20
2022-10-11T11:30:29.280Z,21.21
2022-10-11T11:33:11.868Z,21.04
2022-10-11T11:35:43.932Z,22.69
2022-10-11T11:38:17.006Z,21.54
2022-10-11T11:40:49.090Z,22.60
2022-10-11T11:43:23.540Z,22.74
2022-10-11T11:45:55.313Z,23.22
2022-10-11T11:48:24.785Z,21.95
2022-10-11T11:51:05.416Z,21.99
2022-10-11T11:53:55.522Z,21.46
2022-10-11T11:56:36.295Z,22.83
2022-10-11T11:59:16.982Z,22.21
2022-10-11T12:02:01.986Z,22.08
2022-10-11T12:04:33.174Z,22.11
2022-10-11T12:07:16.065Z,21.21
2022-10-11T12:09:50.557Z,23.54
2022-10-11T12:12:30.511Z,22.73
2022-10-11T12:15:09.533Z,22.04
2022-10-11T12:17:55.014Z,21.78
2022-10-11T12:20:31.479Z,22.55
2022-10-11T12:23:03.663Z,21.44
2022-10-11T12:25:37.477Z,22.97
2022-10-11T12:28:38.232Z,23.21
2022-10-11T12:31:16.950Z,23.34
2022-10-11T12:33:46.578Z,21.78
2022-10-11T12:36:34.037Z,22.38
2022-10-11T12:39:19.096Z,21.94
2022-10-11T12:41:48.959Z,22.19
2022-10-11T12:44:18.567Z,21.68
2022-10-11T12:46:55.597Z,21.62
2022-10-11T12:49:49.001Z,21.75
2022-10-11T12:52:49.770Z,21.58
2022-10-11T12:55:34.947Z,22.25
2022-10-11T12:58:13.931Z,21.81
2022-10-11T13:00:40.421Z,21.62
2022-10-11T13:03:36.369Z,22.96
2022-10-11T13:06:21.709Z,21.72
2022-10-11T13:08:59.784Z,20.96
2022-10-11T13:11:36.998Z,20.98
2022-10-11T13:14:17.322Z,22.01
2022-10-11T13:16:58.562Z,20.84
2022-10-11T13:19:26.281Z,20.59
2022-10-11T13:21:56.063Z,21.09
2022-10-11T13:24:24.527Z,21.03
2022-10-11T13:26:54.324Z,21.62
2022-10-11T13:29:39.473Z,21.45
2022-10-11T13:32:11.895Z,21.13
2022-10-11T13:34:40.930Z,21.56
2022-10-11T13:37:15.167Z,20.19
2022-10-11T13:39:42.186Z,20.52
2022-10-11T13:42:12.531Z,20.20
2022-10-11T13:44:40.196Z,21.22
2022-10-11T13:47:07.023Z,22.27
2022-10-11T13:49:39.983Z,21.30
2022-10-11T13:52:21.407Z,21.60
2022-10-11T13:55:00.248Z,21.32
2022-10-11T13:57:48.121Z,21.17
2022-10-11T14:00:14.563Z,22.21
2022-10-11T14:02:50.428Z,22.66
2022-10-11T14:05:31.487Z,21.47
2022-10-11T14:08:01.762Z,22.13
2022-10-11T14:10:28.764Z,21.16
2022-10-11T14:13:01.381Z,20.38
2022-10-11T14:15:31.169Z,21.13
2022-10-11T14:17:58.702Z,20.51
2022-10-11T14:20:37.482Z,20.55
2022-10-11T14:23:05.935Z,20.61
2022-10-11T14:25:33.048Z,20.52
2022-10-11T14:27:59.749Z,19.92
2022-10-11T14:30:27.768Z,19.96
2022-10-11T14:32:57.779Z,19.14
2022-10-11T14:35:30.477Z,18.06
2022-10-11T14:37:57.086Z,18.36
2022-10-11T14:40:26.627Z,18.32
2022-10-11T14:42:53.199Z,18.85
2022-10-11T14:45:21.183Z,18.83
2022-10-11T14:47:48.178Z,18.77
2022-10-11T14:50:41.091Z,18.52
2022-10-11T14:53:09.302Z,18.34
2022-10-11T14:55:37.294Z,18.39
2022-10-11T14:58:04.729Z,18.49
2022-10-11T15:00:32.298Z,18.45
2022-10-11T15:02:59.493Z,18.47
2022-10-11T15:05:33.434Z,18.24
2022-10-11T15:08:00.812Z,18.70
2022-10-11T15:10:39.731Z,18.41
2022-10-11T15:13:07.731Z,18.72
2022-10-11T15:15:36.724Z,18.64
2022-10-11T15:18:05.983Z,18.13
2022-10-11T15:20:36.213Z,18.36
2022-10-11T15:23:03.534Z,18.41
2022-10-11T15:25:30.493Z,17.87
2022-10-11T15:27:57.713Z,17.97
2022-10-11T15:30:28.204Z,17.95
2022-10-11T15:32:55.256Z,17.98
2022-10-11T15:35:23.335Z,17.54
2022-10-11T15:37:54.302Z,18.15
2022-10-11T15:40:24.499Z,17.59
2022-10-11T15:42:52.807Z,17.85
2022-10-11T15:45:20.671Z,17.68
2022-10-11T15:47:47.828Z,17.71
2022-10-11T15:50:23.966Z,17.50
2022-10-11T15:52:51.714Z,17.26
2022-10-11T15:55:19.082Z,17.47
2022-10-11T15:57:45.719Z,17.63
2022-10-11T16:00:12.514Z,17.65
2022-10-11T16:02:39.536Z,17.68
2022-10-11T16:05:06.169Z,17.27
2022-10-11T16:07:32.661Z,17.20
2022-10-11T16:09:59.286Z,17.49
2022-10-11T16:12:25.805Z,17.03
2022-10-11T16:14:52.319Z,17.02
2022-10-11T16:17:18.845Z,17.04
2022-10-11T16:19:45.292Z,16.89
2022-10-11T16:22:11.806Z,17.04
2022-10-11T16:24:38.338Z,16.43
2022-10-11T16:27:04.839Z,16.42
2022-10-11T16:29:31.377Z,16.29
2022-10-11T16:31:57.877Z,16.08
2022-10-11T16:34:24.439Z,16.02
2022-10-11T16:36:51.046Z,15.96
2022-10-11T16:39:18.425Z,15.74
2022-10-11T16:41:45.843Z,15.54
2022-10-11T16:44:14.478Z,15.49
2022-10-11T16:46:41.563Z,15.39
2022-10-11T16:49:08.125Z,15.17
2022-10-11T16:51:34.600Z,14.95
2022-10-11T16:54:01.104Z,14.79
2022-10-11T16:56:28.086Z,14.79
2022-10-11T16:58:55.410Z,14.53
2022-10-11T17:01:22.479Z,14.30
2022-10-11T17:03:50.055Z,14.10
2022-10-11T17:06:17.462Z,13.88
2022-10-11T17:08:44.178Z,13.82
2022-10-11T17:11:10.779Z,13.76
2022-10-11T17:13:37.286Z,13.74
2022-10-11T17:16:04.226Z,13.58
2022-10-11T17:18:32.230Z,13.40
2022-10-11T17:21:07.042Z,13.33
2022-10-11T17:23:35.285Z,13.17
2022-10-11T17:26:08.615Z,13.49
2022-10-11T17:28:38.248Z,13.46
2022-10-11T17:31:05.531Z,13.18
2022-10-11T17:33:32.510Z,13.17
2022-10-11T17:36:00.708Z,13.18
2022-10-11T17:38:28.391Z,13.25
2022-10-11T17:41:02.289Z,13.22
2022-10-11T17:43:29.304Z,12.95
2022-10-11T17:46:01.175Z,13.12
2022-10-11T17:48:28.580Z,13.07
2022-10-11T17:50:55.436Z,13.37
2022-10-11T17:53:22.687Z,13.38
2022-10-11T17:55:50.355Z,13.10
2022-10-11T17:58:17.971Z,13.41
2022-10-11T18:00:44.673Z,13.35
2022-10-11T18:03:11.364Z,13.70
2022-10-11T18:05:41.446Z,13.20
2022-10-11T18:08:08.562Z,13.13
2022-10-11T18:10:37.332Z,14.13
2022-10-11T18:13:06.913Z,13.66
2022-10-11T18:15:33.983Z,13.36
2022-10-11T18:18:00.688Z,13.43
2022-10-11T18:20:27.155Z,13.59
2022-10-11T18:22:54.169Z,13.48
2022-10-11T18:25:20.664Z,13.58
2022-10-11T18:27:47.213Z,13.46
2022-10-11T18:30:14.557Z,13.37
2022-10-11T18:32:41.090Z,13.25
2022-10-11T18:35:08.042Z,13.17
2022-10-11T18:37:34.543Z,13.28
2022-10-11T18:40:01.057Z,13.33
2022-10-11T18:42:27.558Z,13.11
2022-10-11T18:44:54.098Z,13.66
2022-10-11T18:47:20.608Z,13.40
2022-10-11T18:49:47.144Z,13.20
2022-10-11T18:52:13.639Z,13.15
2022-10-11T18:54:40.242Z,12.93
2022-10-11T18:57:06.773Z,13.03
2022-10-11T18:59:33.301Z,12.89
2022-10-11T19:01:59.800Z,12.85
2022-10-11T19:04:26.540Z,12.99
2022-10-11T19:06:53.245Z,13.16
2022-10-11T19:09:22.457Z,13.00
2022-10-11T19:11:50.635Z,12.94
2022-10-11T19:14:19.232Z,12.85
2022-10-11T19:16:49.656Z,12.59
2022-10-11T19:19:18.928Z,12.70
2022-10-11T19:21:48.470Z,12.65
2022-10-11T19:24:16.710Z,12.57
2022-10-11T19:26:43.515Z,12.52
2022-10-11T19:29:16.622Z,12.54
2022-10-11T19:31:45.989Z,12.64
2022-10-11T19:34:12.910Z,12.55
2022-10-11T19:36:42.524Z,12.30
2022-10-11T19:39:14.182Z,11.89
2022-10-11T19:41:41.407Z,12.03
2022-10-11T19:44:08.090Z,11.92
2022-10-11T19:49:24.792Z,12.04
2022-10-11T19:51:55.338Z,12.10
2022-10-11T19:54:22.467Z,11.71
2022-10-11T19:56:49.003Z,11.67
2022-10-11T19:59:16.223Z,11.50
2022-10-11T20:01:45.514Z,11.45
2022-10-11T20:04:33.233Z,11.63
2022-10-11T20:07:00.920Z,11.89
2022-10-11T20:09:30.190Z,11.52
2022-10-11T20:11:57.205Z,11.64
2022-10-11T20:14:24.862Z,11.60
2022-10-11T20:16:51.621Z,11.55
2022-10-11T20:19:18.694Z,11.78
2022-10-11T20:21:45.402Z,11.91
2022-10-11T20:24:12.496Z,11.81
2022-10-11T20:26:39.205Z,11.85
2022-10-11T20:29:06.306Z,12.02
2022-10-11T20:31:38.021Z,11.95
2022-10-11T20:34:07.012Z,11.78
2022-10-11T20:36:35.920Z,11.72
2022-10-11T20:39:03.745Z,11.65
2022-10-11T20:41:33.358Z,11.52
2022-10-11T20:44:01.496Z,11.43
2022-10-11T20:46:31.242Z,11.38
2022-10-11T20:49:01.852Z,11.22
2022-10-11T20:51:33.532Z,11.50
2022-10-11T20:54:01.847Z,11.24
2022-10-11T20:56:29.565Z,11.27
2022-10-11T20:58:57.893Z,11.34
2022-10-11T21:01:27.699Z,11.26
2022-10-11T21:03:54.372Z,11.21
2022-10-11T21:06:20.879Z,10.82
2022-10-11T21:08:47.477Z,10.72
2022-10-11T21:11:13.944Z,10.56
2022-10-11T21:13:40.708Z,10.55
2022-10-11T21:16:10.779Z,10.03
2022-10-11T21:18:37.781Z,10.06
2022-10-11T21:21:12.506Z,10.63
2022-10-11T21:23:39.590Z,10.21
2022-10-11T21:26:08.641Z,10.39
2022-10-11T21:28:35.340Z,10.41
2022-10-11T21:31:05.800Z,10.05
2022-10-11T21:33:33.866Z,10.04
2022-10-11T21:36:08.978Z,10.05
2022-10-11T21:38:36.226Z,9.93
2022-10-11T21:41:07.754Z,9.89
2022-10-11T21:43:35.887Z,10.06
2022-10-11T21:46:13.912Z,10.13
2022-10-11T21:48:40.745Z,10.14
2022-10-11T21:51:09.057Z,9.63
2022-10-11T21:53:35.634Z,9.71
2022-10-11T21:56:02.118Z,9.76
2022-10-11T21:58:28.605Z,9.89
2022-10-11T22:00:55.084Z,9.95
2022-10-11T22:03:21.816Z,10.01
2022-10-11T22:05:48.453Z,10.02
2022-10-11T22:08:15.068Z,9.84
2022-10-11T22:10:55.649Z,9.78
2022-10-11T22:13:22.748Z,9.94
2022-10-11T22:15:49.426Z,9.74
2022-10-11T22:18:16.441Z,9.81
2022-10-11T22:20:43.352Z,9.71
2022-10-11T22:23:09.952Z,9.82
2022-10-11T22:25:37.845Z,10.14
2022-10-11T22:28:04.943Z,10.04
2022-10-11T22:30:31.646Z,9.77
2022-10-11T22:32:58.146Z,9.76
2022-10-11T22:35:24.596Z,9.77
2022-10-11T22:37:52.122Z,9.70
2022-10-11T22:40:19.345Z,9.73
2022-10-11T22:42:46.304Z,9.55
2022-10-11T22:45:12.797Z,9.77
2022-10-11T22:47:39.310Z,9.64
2022-10-11T22:50:06.134Z,9.71
2022-10-11T22:52:32.601Z,9.39
2022-10-11T22:54:59.136Z,9.20
2022-10-11T22:57:25.694Z,9.34
2022-10-11T22:59:52.154Z,9.48
2022-10-11T23:02:18.709Z,9.37
2022-10-11T23:04:45.193Z,9.31
2022-10-11T23:07:11.692Z,9.23
2022-10-11T23:09:38.239Z,9.04
2022-10-11T23:12:04.920Z,9.12
2022-10-11T23:14:31.354Z,9.30
2022-10-11T23:16:57.786Z,9.10
2022-10-11T23:19:24.296Z,9.18
2022-10-11T23:21:50.894Z,9.21
2022-10-11T23:24:17.395Z,9.12
2022-10-11T23:26:43.948Z,9.29
2022-10-11T23:29:10.455Z,9.14
2022-10-11T23:31:36.886Z,9.22
2022-10-11T23:34:03.430Z,9.03
2022-10-11T23:36:29.916Z,8.95
2022-10-11T23:38:58.079Z,9.10
2022-10-11T23:41:27.010Z,9.10
2022-10-11T23:43:53.733Z,9.11
2022-10-11T23:46:20.413Z,9.03
2022-10-11T23:48:47.297Z,8.83
2022-10-11T23:51:14.100Z,8.72
2022-10-11T23:53:40.549Z,8.88
2022-10-11T23:56:07.572Z,8.57
2022-10-11T23:58:34.202Z,8.59
